sensor_id;sensor_type;location;lat;lon;timestamp;P1;durP1;ratioP1;P2;durP2;ratioP2
73938;SDS011;62291;47.554;8.504;2022-08-02T00:01:42;6.95;;;5.90;;
73938;SDS011;62291;47.554;8.504;2022-08-02T00:04:08;8.27;;;5.88;;
73938;SDS011;62291;47.554;8.504;2022-08-02T00:06:34;8.30;;;6.10;;
73938;SDS011;62291;47.554;8.504;2022-08-02T00:09:01;9.10;;;6.30;;
73938;SDS011;62291;47.554;8.504;2022-08-02T00:11:27;9.30;;;6.28;;
73938;SDS011;62291;47.554;8.504;2022-08-02T00:13:53;7.32;;;6.00;;
73938;SDS011;62291;47.554;8.504;2022-08-02T00:16:19;8.85;;;5.93;;
73938;SDS011;62291;47.554;8.504;2022-08-02T00:18:45;7.38;;;6.18;;
73938;SDS011;62291;47.554;8.504;2022-08-02T00:21:10;7.18;;;6.30;;
73938;SDS011;62291;47.554;8.504;2022-08-02T00:23:36;8.70;;;5.90;;
73938;SDS011;62291;47.554;8.504;2022-08-02T00:26:02;9.27;;;5.93;;
73938;SDS011;62291;47.554;8.504;2022-08-02T00:28:27;8.43;;;6.00;;
73938;SDS011;62291;47.554;8.504;2022-08-02T00:30:53;8.77;;;6.20;;
73938;SDS011;62291;47.554;8.504;2022-08-02T00:33:19;7.13;;;6.28;;
73938;SDS011;62291;47.554;8.504;2022-08-02T00:35:44;8.25;;;6.10;;
73938;SDS011;62291;47.554;8.504;2022-08-02T00:38:11;9.85;;;5.80;;
73938;SDS011;62291;47.554;8.504;2022-08-02T00:40:37;7.65;;;5.72;;
73938;SDS011;62291;47.554;8.504;2022-08-02T00:43:04;8.70;;;5.90;;
73938;SDS011;62291;47.554;8.504;2022-08-02T00:45:33;7.70;;;5.45;;
73938;SDS011;62291;47.554;8.504;2022-08-02T00:47:59;8.45;;;5.32;;
73938;SDS011;62291;47.554;8.504;2022-08-02T00:50:25;6.90;;;5.15;;
73938;SDS011;62291;47.554;8.504;2022-08-02T00:52:52;7.95;;;6.45;;
73938;SDS011;62291;47.554;8.504;2022-08-02T00:55:18;9.55;;;6.03;;
73938;SDS011;62291;47.554;8.504;2022-08-02T00:57:45;10.35;;;6.60;;
73938;SDS011;62291;47.554;8.504;2022-08-02T01:00:10;7.55;;;5.85;;
73938;SDS011;62291;47.554;8.504;2022-08-02T01:02:36;7.47;;;6.05;;
73938;SDS011;62291;47.554;8.504;2022-08-02T01:05:02;7.28;;;6.07;;
73938;SDS011;62291;47.554;8.504;2022-08-02T01:07:28;7.55;;;6.03;;
73938;SDS011;62291;47.554;8.504;2022-08-02T01:09:54;8.57;;;6.07;;
73938;SDS011;62291;47.554;8.504;2022-08-02T01:12:20;8.32;;;5.53;;
73938;SDS011;62291;47.554;8.504;2022-08-02T01:14:46;9.75;;;5.90;;
73938;SDS011;62291;47.554;8.504;2022-08-02T01:17:49;8.48;;;5.80;;
73938;SDS011;62291;47.554;8.504;2022-08-02T01:28:38;9.57;;;6.60;;
73938;SDS011;62291;47.554;8.504;2022-08-02T01:34:00;8.50;;;6.50;;
73938;SDS011;62291;47.554;8.504;2022-08-02T01:36:48;9.23;;;6.43;;
73938;SDS011;62291;47.554;8.504;2022-08-02T01:39:25;10.00;;;6.50;;
73938;SDS011;62291;47.554;8.504;2022-08-02T01:41:54;7.80;;;6.18;;
73938;SDS011;62291;47.554;8.504;2022-08-02T01:44:22;8.93;;;6.47;;
73938;SDS011;62291;47.554;8.504;2022-08-02T01:46:50;11.80;;;6.45;;
73938;SDS011;62291;47.554;8.504;2022-08-02T01:49:19;6.95;;;5.72;;
73938;SDS011;62291;47.554;8.504;2022-08-02T01:51:48;7.07;;;6.13;;
73938;SDS011;62291;47.554;8.504;2022-08-02T01:54:34;7.32;;;5.63;;
73938;SDS011;62291;47.554;8.504;2022-08-02T01:57:02;8.75;;;5.60;;
73938;SDS011;62291;47.554;8.504;2022-08-02T01:59:31;11.10;;;6.38;;
73938;SDS011;62291;47.554;8.504;2022-08-02T02:01:59;8.32;;;6.40;;
73938;SDS011;62291;47.554;8.504;2022-08-02T02:04:27;9.75;;;7.63;;
73938;SDS011;62291;47.554;8.504;2022-08-02T02:06:55;14.57;;;8.05;;
73938;SDS011;62291;47.554;8.504;2022-08-02T02:09:21;9.40;;;7.30;;
73938;SDS011;62291;47.554;8.504;2022-08-02T02:11:50;7.35;;;5.53;;
73938;SDS011;62291;47.554;8.504;2022-08-02T02:14:16;6.25;;;5.10;;
73938;SDS011;62291;47.554;8.504;2022-08-02T02:16:43;5.75;;;5.03;;
73938;SDS011;62291;47.554;8.504;2022-08-02T02:19:12;7.18;;;4.80;;
73938;SDS011;62291;47.554;8.504;2022-08-02T02:21:42;8.10;;;5.18;;
73938;SDS011;62291;47.554;8.504;2022-08-02T02:24:08;7.00;;;5.15;;
73938;SDS011;62291;47.554;8.504;2022-08-02T02:26:34;7.13;;;5.20;;
73938;SDS011;62291;47.554;8.504;2022-08-02T02:29:02;7.53;;;5.18;;
73938;SDS011;62291;47.554;8.504;2022-08-02T02:31:33;10.88;;;7.68;;
73938;SDS011;62291;47.554;8.504;2022-08-02T02:34:02;9.13;;;5.88;;
73938;SDS011;62291;47.554;8.504;2022-08-02T02:36:38;8.85;;;6.40;;
73938;SDS011;62291;47.554;8.504;2022-08-02T02:39:06;6.88;;;5.80;;
73938;SDS011;62291;47.554;8.504;2022-08-02T02:41:34;7.40;;;5.35;;
73938;SDS011;62291;47.554;8.504;2022-08-02T02:44:03;8.75;;;6.97;;
73938;SDS011;62291;47.554;8.504;2022-08-02T02:46:33;9.30;;;6.57;;
73938;SDS011;62291;47.554;8.504;2022-08-02T02:49:00;11.25;;;6.60;;
73938;SDS011;62291;47.554;8.504;2022-08-02T02:51:26;7.97;;;6.20;;
73938;SDS011;62291;47.554;8.504;2022-08-02T02:53:53;8.82;;;6.30;;
73938;SDS011;62291;47.554;8.504;2022-08-02T02:56:21;12.68;;;8.02;;
73938;SDS011;62291;47.554;8.504;2022-08-02T02:58:47;9.65;;;7.57;;
73938;SDS011;62291;47.554;8.504;2022-08-02T03:01:14;10.93;;;8.27;;
73938;SDS011;62291;47.554;8.504;2022-08-02T03:03:52;18.58;;;10.52;;
73938;SDS011;62291;47.554;8.504;2022-08-02T03:06:19;14.75;;;8.55;;
73938;SDS011;62291;47.554;8.504;2022-08-02T03:08:45;13.10;;;7.35;;
73938;SDS011;62291;47.554;8.504;2022-08-02T03:11:11;6.72;;;5.57;;
73938;SDS011;62291;47.554;8.504;2022-08-02T03:13:38;7.50;;;5.03;;
73938;SDS011;62291;47.554;8.504;2022-08-02T03:16:04;6.80;;;5.75;;
73938;SDS011;62291;47.554;8.504;2022-08-02T03:18:31;10.45;;;6.43;;
73938;SDS011;62291;47.554;8.504;2022-08-02T03:21:01;7.90;;;6.65;;
73938;SDS011;62291;47.554;8.504;2022-08-02T03:23:29;7.65;;;6.00;;
73938;SDS011;62291;47.554;8.504;2022-08-02T03:25:55;7.75;;;6.47;;
73938;SDS011;62291;47.554;8.504;2022-08-02T03:28:21;10.10;;;7.47;;
73938;SDS011;62291;47.554;8.504;2022-08-02T03:30:50;12.00;;;7.70;;
73938;SDS011;62291;47.554;8.504;2022-08-02T03:33:16;9.15;;;7.38;;
73938;SDS011;62291;47.554;8.504;2022-08-02T03:35:43;9.27;;;6.53;;
73938;SDS011;62291;47.554;8.504;2022-08-02T03:38:11;15.20;;;6.60;;
73938;SDS011;62291;47.554;8.504;2022-08-02T03:40:38;7.63;;;6.55;;
73938;SDS011;62291;47.554;8.504;2022-08-02T03:43:05;10.30;;;7.05;;
73938;SDS011;62291;47.554;8.504;2022-08-02T03:45:33;9.25;;;6.65;;
73938;SDS011;62291;47.554;8.504;2022-08-02T03:48:00;8.75;;;6.40;;
73938;SDS011;62291;47.554;8.504;2022-08-02T03:50:27;8.15;;;6.57;;
73938;SDS011;62291;47.554;8.504;2022-08-02T03:52:53;7.82;;;6.15;;
73938;SDS011;62291;47.554;8.504;2022-08-02T03:55:18;6.68;;;5.70;;
73938;SDS011;62291;47.554;8.504;2022-08-02T03:57:44;6.47;;;5.07;;
73938;SDS011;62291;47.554;8.504;2022-08-02T04:00:11;5.90;;;5.20;;
73938;SDS011;62291;47.554;8.504;2022-08-02T04:05:07;7.28;;;5.35;;
73938;SDS011;62291;47.554;8.504;2022-08-02T04:07:33;8.05;;;6.13;;
73938;SDS011;62291;47.554;8.504;2022-08-02T04:09:59;15.50;;;8.60;;
73938;SDS011;62291;47.554;8.504;2022-08-02T04:12:24;9.80;;;6.35;;
73938;SDS011;62291;47.554;8.504;2022-08-02T04:14:50;23.58;;;9.20;;
73938;SDS011;62291;47.554;8.504;2022-08-02T04:17:16;46.10;;;10.23;;
73938;SDS011;62291;47.554;8.504;2022-08-02T04:19:47;26.33;;;10.55;;
73938;SDS011;62291;47.554;8.504;2022-08-02T04:22:20;31.45;;;11.38;;
73938;SDS011;62291;47.554;8.504;2022-08-02T04:24:53;24.25;;;10.43;;
73938;SDS011;62291;47.554;8.504;2022-08-02T04:27:21;33.25;;;12.85;;
73938;SDS011;62291;47.554;8.504;2022-08-02T04:29:47;42.85;;;14.63;;
73938;SDS011;62291;47.554;8.504;2022-08-02T04:32:13;453.40;;;27.15;;
73938;SDS011;62291;47.554;8.504;2022-08-02T04:34:41;356.25;;;27.92;;
73938;SDS011;62291;47.554;8.504;2022-08-02T04:37:07;604.38;;;35.42;;
73938;SDS011;62291;47.554;8.504;2022-08-02T04:39:35;206.15;;;20.42;;
73938;SDS011;62291;47.554;8.504;2022-08-02T04:42:01;29.27;;;12.20;;
73938;SDS011;62291;47.554;8.504;2022-08-02T04:44:26;31.13;;;11.80;;
73938;SDS011;62291;47.554;8.504;2022-08-02T04:46:52;21.45;;;10.57;;
73938;SDS011;62291;47.554;8.504;2022-08-02T04:49:19;27.75;;;10.43;;
73938;SDS011;62291;47.554;8.504;2022-08-02T04:51:45;16.50;;;9.40;;
73938;SDS011;62291;47.554;8.504;2022-08-02T04:54:11;13.55;;;8.48;;
73938;SDS011;62291;47.554;8.504;2022-08-02T04:56:37;10.57;;;7.75;;
73938;SDS011;62291;47.554;8.504;2022-08-02T04:59:03;53.10;;;8.65;;
73938;SDS011;62291;47.554;8.504;2022-08-02T05:01:29;8.40;;;7.00;;
73938;SDS011;62291;47.554;8.504;2022-08-02T05:03:55;7.38;;;6.60;;
73938;SDS011;62291;47.554;8.504;2022-08-02T05:06:20;9.07;;;6.78;;
73938;SDS011;62291;47.554;8.504;2022-08-02T05:08:46;12.23;;;6.90;;
73938;SDS011;62291;47.554;8.504;2022-08-02T05:11:13;6.30;;;5.70;;
73938;SDS011;62291;47.554;8.504;2022-08-02T05:13:41;6.28;;;4.97;;
73938;SDS011;62291;47.554;8.504;2022-08-02T05:16:08;5.55;;;5.05;;
73938;SDS011;62291;47.554;8.504;2022-08-02T05:18:36;5.53;;;4.55;;
73938;SDS011;62291;47.554;8.504;2022-08-02T05:21:02;6.32;;;5.40;;
73938;SDS011;62291;47.554;8.504;2022-08-02T05:23:28;6.32;;;4.28;;
73938;SDS011;62291;47.554;8.504;2022-08-02T05:25:54;6.28;;;5.40;;
73938;SDS011;62291;47.554;8.504;2022-08-02T05:28:20;7.22;;;5.72;;
73938;SDS011;62291;47.554;8.504;2022-08-02T05:30:46;5.95;;;5.35;;
73938;SDS011;62291;47.554;8.504;2022-08-02T05:33:11;8.25;;;6.25;;
73938;SDS011;62291;47.554;8.504;2022-08-02T05:35:37;7.82;;;5.47;;
73938;SDS011;62291;47.554;8.504;2022-08-02T05:38:02;6.88;;;5.90;;
73938;SDS011;62291;47.554;8.504;2022-08-02T05:40:28;7.65;;;5.65;;
73938;SDS011;62291;47.554;8.504;2022-08-02T05:42:54;6.57;;;5.53;;
73938;SDS011;62291;47.554;8.504;2022-08-02T05:45:20;6.07;;;5.57;;
73938;SDS011;62291;47.554;8.504;2022-08-02T05:47:46;6.65;;;5.72;;
73938;SDS011;62291;47.554;8.504;2022-08-02T05:50:11;6.93;;;6.10;;
73938;SDS011;62291;47.554;8.504;2022-08-02T05:53:11;6.63;;;6.03;;
73938;SDS011;62291;47.554;8.504;2022-08-02T05:55:50;6.80;;;6.10;;
73938;SDS011;62291;47.554;8.504;2022-08-02T06:01:27;6.75;;;5.93;;
73938;SDS011;62291;47.554;8.504;2022-08-02T06:03:57;5.80;;;5.30;;
73938;SDS011;62291;47.554;8.504;2022-08-02T06:06:24;6.82;;;5.43;;
73938;SDS011;62291;47.554;8.504;2022-08-02T06:08:59;7.05;;;5.45;;
73938;SDS011;62291;47.554;8.504;2022-08-02T06:11:33;7.28;;;5.43;;
73938;SDS011;62291;47.554;8.504;2022-08-02T06:14:04;6.93;;;5.50;;
73938;SDS011;62291;47.554;8.504;2022-08-02T06:16:31;7.25;;;5.50;;
73938;SDS011;62291;47.554;8.504;2022-08-02T06:18:58;7.20;;;5.90;;
73938;SDS011;62291;47.554;8.504;2022-08-02T06:21:24;6.32;;;5.72;;
73938;SDS011;62291;47.554;8.504;2022-08-02T06:23:50;9.48;;;5.45;;
73938;SDS011;62291;47.554;8.504;2022-08-02T06:26:16;5.78;;;5.20;;
73938;SDS011;62291;47.554;8.504;2022-08-02T06:28:44;5.53;;;4.68;;
73938;SDS011;62291;47.554;8.504;2022-08-02T06:31:12;7.13;;;5.10;;
73938;SDS011;62291;47.554;8.504;2022-08-02T06:33:38;12.07;;;5.18;;
73938;SDS011;62291;47.554;8.504;2022-08-02T06:36:09;6.05;;;4.97;;
73938;SDS011;62291;47.554;8.504;2022-08-02T06:39:11;6.10;;;4.57;;
73938;SDS011;62291;47.554;8.504;2022-08-02T06:41:43;7.93;;;5.50;;
73938;SDS011;62291;47.554;8.504;2022-08-02T06:44:11;6.00;;;4.68;;
73938;SDS011;62291;47.554;8.504;2022-08-02T06:46:37;5.82;;;5.03;;
73938;SDS011;62291;47.554;8.504;2022-08-02T06:49:02;5.22;;;4.53;;
73938;SDS011;62291;47.554;8.504;2022-08-02T06:51:28;5.85;;;4.57;;
73938;SDS011;62291;47.554;8.504;2022-08-02T06:53:54;5.65;;;4.63;;
73938;SDS011;62291;47.554;8.504;2022-08-02T06:56:19;5.68;;;5.03;;
73938;SDS011;62291;47.554;8.504;2022-08-02T06:58:45;4.97;;;4.13;;
73938;SDS011;62291;47.554;8.504;2022-08-02T07:01:11;4.82;;;4.20;;
73938;SDS011;62291;47.554;8.504;2022-08-02T07:03:37;5.90;;;5.05;;
73938;SDS011;62291;47.554;8.504;2022-08-02T07:06:04;8.13;;;4.38;;
73938;SDS011;62291;47.554;8.504;2022-08-02T07:08:34;5.18;;;4.68;;
73938;SDS011;62291;47.554;8.504;2022-08-02T07:11:03;5.47;;;4.97;;
73938;SDS011;62291;47.554;8.504;2022-08-02T07:13:29;8.60;;;6.22;;
73938;SDS011;62291;47.554;8.504;2022-08-02T07:15:55;7.90;;;5.97;;
73938;SDS011;62291;47.554;8.504;2022-08-02T07:18:24;8.40;;;5.68;;
73938;SDS011;62291;47.554;8.504;2022-08-02T07:20:50;6.07;;;5.40;;
73938;SDS011;62291;47.554;8.504;2022-08-02T07:23:16;6.85;;;5.25;;
73938;SDS011;62291;47.554;8.504;2022-08-02T07:25:42;7.53;;;5.20;;
73938;SDS011;62291;47.554;8.504;2022-08-02T07:28:09;7.97;;;5.18;;
73938;SDS011;62291;47.554;8.504;2022-08-02T07:30:36;6.13;;;5.53;;
73938;SDS011;62291;47.554;8.504;2022-08-02T07:33:02;7.38;;;5.25;;
73938;SDS011;62291;47.554;8.504;2022-08-02T07:35:28;7.00;;;5.15;;
73938;SDS011;62291;47.554;8.504;2022-08-02T07:37:54;5.80;;;5.13;;
73938;SDS011;62291;47.554;8.504;2022-08-02T07:40:20;8.90;;;5.50;;
73938;SDS011;62291;47.554;8.504;2022-08-02T07:42:46;5.70;;;5.20;;
73938;SDS011;62291;47.554;8.504;2022-08-02T07:45:17;6.90;;;5.50;;
73938;SDS011;62291;47.554;8.504;2022-08-02T07:47:43;6.20;;;5.05;;
73938;SDS011;62291;47.554;8.504;2022-08-02T07:50:10;6.38;;;5.15;;
73938;SDS011;62291;47.554;8.504;2022-08-02T07:52:37;5.78;;;4.82;;
73938;SDS011;62291;47.554;8.504;2022-08-02T07:55:07;6.82;;;4.00;;
73938;SDS011;62291;47.554;8.504;2022-08-02T07:57:34;4.97;;;4.28;;
73938;SDS011;62291;47.554;8.504;2022-08-02T08:00:00;6.07;;;4.32;;
73938;SDS011;62291;47.554;8.504;2022-08-02T08:02:25;4.13;;;3.72;;
73938;SDS011;62291;47.554;8.504;2022-08-02T08:04:51;4.13;;;3.72;;
73938;SDS011;62291;47.554;8.504;2022-08-02T08:07:17;4.30;;;3.47;;
73938;SDS011;62291;47.554;8.504;2022-08-02T08:09:44;5.25;;;3.20;;
73938;SDS011;62291;47.554;8.504;2022-08-02T08:12:11;3.38;;;3.08;;
73938;SDS011;62291;47.554;8.504;2022-08-02T08:14:38;3.88;;;2.90;;
73938;SDS011;62291;47.554;8.504;2022-08-02T08:17:04;3.53;;;2.47;;
73938;SDS011;62291;47.554;8.504;2022-08-02T08:19:30;4.20;;;3.10;;
73938;SDS011;62291;47.554;8.504;2022-08-02T08:21:56;5.40;;;2.80;;
73938;SDS011;62291;47.554;8.504;2022-08-02T08:24:24;4.60;;;2.78;;
73938;SDS011;62291;47.554;8.504;2022-08-02T08:26:51;2.85;;;2.13;;
73938;SDS011;62291;47.554;8.504;2022-08-02T08:29:17;4.95;;;2.42;;
73938;SDS011;62291;47.554;8.504;2022-08-02T08:31:42;3.42;;;2.85;;
73938;SDS011;62291;47.554;8.504;2022-08-02T08:34:08;3.80;;;2.40;;
73938;SDS011;62291;47.554;8.504;2022-08-02T08:36:34;3.20;;;2.40;;
73938;SDS011;62291;47.554;8.504;2022-08-02T08:39:00;3.95;;;2.15;;
73938;SDS011;62291;47.554;8.504;2022-08-02T08:41:25;3.80;;;2.45;;
73938;SDS011;62291;47.554;8.504;2022-08-02T08:43:51;3.35;;;2.75;;
73938;SDS011;62291;47.554;8.504;2022-08-02T08:46:38;2.70;;;2.40;;
73938;SDS011;62291;47.554;8.504;2022-08-02T08:51:55;6.32;;;2.67;;
73938;SDS011;62291;47.554;8.504;2022-08-02T08:54:27;3.78;;;2.38;;
73938;SDS011;62291;47.554;8.504;2022-08-02T08:56:55;4.35;;;2.60;;
73938;SDS011;62291;47.554;8.504;2022-08-02T08:59:22;4.22;;;2.78;;
73938;SDS011;62291;47.554;8.504;2022-08-02T09:01:48;3.45;;;2.67;;
73938;SDS011;62291;47.554;8.504;2022-08-02T09:04:15;3.08;;;2.65;;
73938;SDS011;62291;47.554;8.504;2022-08-02T09:06:41;4.18;;;2.17;;
73938;SDS011;62291;47.554;8.504;2022-08-02T09:09:07;2.28;;;1.92;;
73938;SDS011;62291;47.554;8.504;2022-08-02T09:11:33;2.38;;;1.95;;
73938;SDS011;62291;47.554;8.504;2022-08-02T09:13:59;2.75;;;2.00;;
73938;SDS011;62291;47.554;8.504;2022-08-02T09:21:42;3.85;;;2.00;;
73938;SDS011;62291;47.554;8.504;2022-08-02T09:24:21;2.17;;;1.95;;
73938;SDS011;62291;47.554;8.504;2022-08-02T09:26:48;2.00;;;1.80;;
73938;SDS011;62291;47.554;8.504;2022-08-02T09:29:15;2.50;;;2.30;;
73938;SDS011;62291;47.554;8.504;2022-08-02T09:31:42;2.22;;;1.90;;
73938;SDS011;62291;47.554;8.504;2022-08-02T09:34:08;5.30;;;2.30;;
73938;SDS011;62291;47.554;8.504;2022-08-02T09:36:38;2.22;;;2.03;;
73938;SDS011;62291;47.554;8.504;2022-08-02T09:39:07;3.88;;;2.17;;
73938;SDS011;62291;47.554;8.504;2022-08-02T09:41:35;2.22;;;1.83;;
73938;SDS011;62291;47.554;8.504;2022-08-02T09:44:05;4.00;;;2.35;;
73938;SDS011;62291;47.554;8.504;2022-08-02T09:46:34;6.20;;;2.13;;
73938;SDS011;62291;47.554;8.504;2022-08-02T09:49:13;2.95;;;1.92;;
73938;SDS011;62291;47.554;8.504;2022-08-02T09:54:10;3.38;;;2.15;;
73938;SDS011;62291;47.554;8.504;2022-08-02T09:56:45;2.33;;;2.03;;
73938;SDS011;62291;47.554;8.504;2022-08-02T09:59:15;2.95;;;2.08;;
73938;SDS011;62291;47.554;8.504;2022-08-02T10:01:42;2.75;;;1.90;;
73938;SDS011;62291;47.554;8.504;2022-08-02T10:04:10;2.83;;;2.47;;
73938;SDS011;62291;47.554;8.504;2022-08-02T10:06:38;2.80;;;2.00;;
73938;SDS011;62291;47.554;8.504;2022-08-02T10:09:05;3.05;;;2.00;;
73938;SDS011;62291;47.554;8.504;2022-08-02T10:11:32;2.75;;;2.17;;
73938;SDS011;62291;47.554;8.504;2022-08-02T10:13:59;4.05;;;2.33;;
73938;SDS011;62291;47.554;8.504;2022-08-02T10:16:29;2.83;;;2.00;;
73938;SDS011;62291;47.554;8.504;2022-08-02T10:18:55;2.20;;;2.00;;
73938;SDS011;62291;47.554;8.504;2022-08-02T10:21:26;2.17;;;1.95;;
73938;SDS011;62291;47.554;8.504;2022-08-02T10:23:57;5.25;;;4.53;;
73938;SDS011;62291;47.554;8.504;2022-08-02T10:26:27;3.47;;;2.70;;
73938;SDS011;62291;47.554;8.504;2022-08-02T10:28:54;3.03;;;2.05;;
73938;SDS011;62291;47.554;8.504;2022-08-02T10:31:21;2.20;;;2.00;;
73938;SDS011;62291;47.554;8.504;2022-08-02T10:33:51;4.30;;;2.30;;
73938;SDS011;62291;47.554;8.504;2022-08-02T10:36:18;3.85;;;2.05;;
73938;SDS011;62291;47.554;8.504;2022-08-02T10:38:45;2.65;;;2.10;;
73938;SDS011;62291;47.554;8.504;2022-08-02T10:41:11;3.22;;;2.53;;
73938;SDS011;62291;47.554;8.504;2022-08-02T10:54:25;2.40;;;2.15;;
73938;SDS011;62291;47.554;8.504;2022-08-02T10:56:53;3.05;;;2.10;;
73938;SDS011;62291;47.554;8.504;2022-08-02T10:59:35;2.20;;;2.00;;
73938;SDS011;62291;47.554;8.504;2022-08-02T11:02:03;3.45;;;1.88;;
73938;SDS011;62291;47.554;8.504;2022-08-02T11:04:30;2.00;;;1.85;;
73938;SDS011;62291;47.554;8.504;2022-08-02T11:07:33;2.17;;;1.92;;
73938;SDS011;62291;47.554;8.504;2022-08-02T11:13:01;2.05;;;1.85;;
73938;SDS011;62291;47.554;8.504;2022-08-02T11:15:29;3.75;;;2.30;;
73938;SDS011;62291;47.554;8.504;2022-08-02T11:18:10;3.08;;;1.98;;
73938;SDS011;62291;47.554;8.504;2022-08-02T11:20:36;3.45;;;2.45;;
73938;SDS011;62291;47.554;8.504;2022-08-02T11:23:32;2.88;;;1.80;;
73938;SDS011;62291;47.554;8.504;2022-08-02T11:28:55;2.63;;;1.93;;
73938;SDS011;62291;47.554;8.504;2022-08-02T11:31:22;2.83;;;1.90;;
73938;SDS011;62291;47.554;8.504;2022-08-02T11:33:48;3.00;;;1.70;;
73938;SDS011;62291;47.554;8.504;2022-08-02T11:36:15;2.15;;;1.77;;
73938;SDS011;62291;47.554;8.504;2022-08-02T11:38:41;2.65;;;2.00;;
73938;SDS011;62291;47.554;8.504;2022-08-02T11:41:07;2.10;;;1.92;;
73938;SDS011;62291;47.554;8.504;2022-08-02T11:43:34;3.10;;;2.03;;
73938;SDS011;62291;47.554;8.504;2022-08-02T11:46:01;3.80;;;2.10;;
73938;SDS011;62291;47.554;8.504;2022-08-02T11:48:36;3.60;;;2.05;;
73938;SDS011;62291;47.554;8.504;2022-08-02T11:51:14;3.10;;;2.50;;
73938;SDS011;62291;47.554;8.504;2022-08-02T11:56:10;2.80;;;2.22;;
73938;SDS011;62291;47.554;8.504;2022-08-02T11:58:36;4.32;;;2.10;;
73938;SDS011;62291;47.554;8.504;2022-08-02T12:01:03;7.57;;;2.40;;
73938;SDS011;62291;47.554;8.504;2022-08-02T12:03:33;2.75;;;2.40;;
73938;SDS011;62291;47.554;8.504;2022-08-02T12:06:03;3.15;;;2.10;;
73938;SDS011;62291;47.554;8.504;2022-08-02T12:08:30;2.55;;;2.08;;
73938;SDS011;62291;47.554;8.504;2022-08-02T12:10:56;5.40;;;2.20;;
73938;SDS011;62291;47.554;8.504;2022-08-02T12:13:25;2.72;;;2.40;;
73938;SDS011;62291;47.554;8.504;2022-08-02T12:15:51;4.20;;;2.30;;
73938;SDS011;62291;47.554;8.504;2022-08-02T12:18:17;5.60;;;2.20;;
73938;SDS011;62291;47.554;8.504;2022-08-02T12:21:18;3.83;;;2.20;;
73938;SDS011;62291;47.554;8.504;2022-08-02T12:23:49;3.88;;;2.10;;
73938;SDS011;62291;47.554;8.504;2022-08-02T12:26:15;2.38;;;2.17;;
73938;SDS011;62291;47.554;8.504;2022-08-02T12:28:41;2.80;;;1.98;;
73938;SDS011;62291;47.554;8.504;2022-08-02T12:31:07;2.55;;;2.10;;
73938;SDS011;62291;47.554;8.504;2022-08-02T12:33:46;2.78;;;2.05;;
73938;SDS011;62291;47.554;8.504;2022-08-02T12:36:16;2.20;;;2.00;;
73938;SDS011;62291;47.554;8.504;2022-08-02T12:38:52;2.70;;;2.13;;
73938;SDS011;62291;47.554;8.504;2022-08-02T12:41:18;2.20;;;2.00;;
73938;SDS011;62291;47.554;8.504;2022-08-02T12:43:44;4.40;;;2.22;;
73938;SDS011;62291;47.554;8.504;2022-08-02T12:46:17;2.55;;;2.17;;
73938;SDS011;62291;47.554;8.504;2022-08-02T12:48:45;3.03;;;2.35;;
73938;SDS011;62291;47.554;8.504;2022-08-02T12:51:27;2.53;;;1.85;;
73938;SDS011;62291;47.554;8.504;2022-08-02T12:57:12;4.43;;;1.80;;
73938;SDS011;62291;47.554;8.504;2022-08-02T12:59:39;2.08;;;1.80;;
73938;SDS011;62291;47.554;8.504;2022-08-02T13:02:09;3.65;;;2.00;;
73938;SDS011;62291;47.554;8.504;2022-08-02T13:04:35;3.65;;;1.65;;
73938;SDS011;62291;47.554;8.504;2022-08-02T13:07:02;5.68;;;1.80;;
73938;SDS011;62291;47.554;8.504;2022-08-02T13:09:33;2.58;;;2.22;;
73938;SDS011;62291;47.554;8.504;2022-08-02T13:12:09;2.30;;;2.00;;
73938;SDS011;62291;47.554;8.504;2022-08-02T13:14:35;1.88;;;1.60;;
73938;SDS011;62291;47.554;8.504;2022-08-02T13:17:03;2.10;;;1.90;;
73938;SDS011;62291;47.554;8.504;2022-08-02T13:19:29;2.05;;;1.60;;
73938;SDS011;62291;47.554;8.504;2022-08-02T13:21:55;3.03;;;1.83;;
73938;SDS011;62291;47.554;8.504;2022-08-02T13:24:20;2.53;;;2.10;;
73938;SDS011;62291;47.554;8.504;2022-08-02T13:26:46;4.10;;;1.60;;
73938;SDS011;62291;47.554;8.504;2022-08-02T13:29:12;2.67;;;1.60;;
73938;SDS011;62291;47.554;8.504;2022-08-02T13:31:38;2.63;;;1.42;;
73938;SDS011;62291;47.554;8.504;2022-08-02T13:34:04;2.03;;;1.55;;
73938;SDS011;62291;47.554;8.504;2022-08-02T13:36:31;2.85;;;1.60;;
73938;SDS011;62291;47.554;8.504;2022-08-02T13:38:57;1.52;;;1.20;;
73938;SDS011;62291;47.554;8.504;2022-08-02T13:41:23;1.70;;;1.40;;
73938;SDS011;62291;47.554;8.504;2022-08-02T13:43:49;5.13;;;1.67;;
73938;SDS011;62291;47.554;8.504;2022-08-02T13:46:14;3.78;;;1.20;;
73938;SDS011;62291;47.554;8.504;2022-08-02T13:48:40;2.47;;;1.50;;
73938;SDS011;62291;47.554;8.504;2022-08-02T13:51:06;2.38;;;1.38;;
73938;SDS011;62291;47.554;8.504;2022-08-02T13:53:36;1.92;;;1.40;;
73938;SDS011;62291;47.554;8.504;2022-08-02T13:56:05;2.40;;;1.45;;
73938;SDS011;62291;47.554;8.504;2022-08-02T13:58:31;3.72;;;1.75;;
73938;SDS011;62291;47.554;8.504;2022-08-02T14:00:57;1.80;;;1.27;;
73938;SDS011;62291;47.554;8.504;2022-08-02T14:03:23;3.20;;;1.33;;
73938;SDS011;62291;47.554;8.504;2022-08-02T14:05:49;3.65;;;1.40;;
73938;SDS011;62291;47.554;8.504;2022-08-02T14:08:18;1.45;;;1.35;;
73938;SDS011;62291;47.554;8.504;2022-08-02T14:10:47;1.75;;;1.35;;
73938;SDS011;62291;47.554;8.504;2022-08-02T14:13:13;1.88;;;1.50;;
73938;SDS011;62291;47.554;8.504;2022-08-02T14:15:40;2.20;;;1.58;;
73938;SDS011;62291;47.554;8.504;2022-08-02T14:18:06;2.90;;;1.35;;
73938;SDS011;62291;47.554;8.504;2022-08-02T14:20:32;2.08;;;1.40;;
73938;SDS011;62291;47.554;8.504;2022-08-02T14:22:58;3.70;;;1.65;;
73938;SDS011;62291;47.554;8.504;2022-08-02T14:25:23;2.38;;;1.40;;
73938;SDS011;62291;47.554;8.504;2022-08-02T14:27:49;2.78;;;1.17;;
73938;SDS011;62291;47.554;8.504;2022-08-02T14:30:15;1.80;;;1.42;;
73938;SDS011;62291;47.554;8.504;2022-08-02T14:32:41;1.65;;;1.30;;
73938;SDS011;62291;47.554;8.504;2022-08-02T14:35:07;1.70;;;1.38;;
73938;SDS011;62291;47.554;8.504;2022-08-02T14:37:36;4.38;;;1.50;;
73938;SDS011;62291;47.554;8.504;2022-08-02T14:40:02;3.60;;;1.48;;
73938;SDS011;62291;47.554;8.504;2022-08-02T14:42:28;2.13;;;1.50;;
73938;SDS011;62291;47.554;8.504;2022-08-02T14:44:53;2.45;;;1.42;;
73938;SDS011;62291;47.554;8.504;2022-08-02T14:47:19;2.22;;;1.40;;
73938;SDS011;62291;47.554;8.504;2022-08-02T14:49:45;2.75;;;1.25;;
73938;SDS011;62291;47.554;8.504;2022-08-02T14:52:11;3.47;;;1.30;;
73938;SDS011;62291;47.554;8.504;2022-08-02T14:54:38;3.25;;;1.20;;
73938;SDS011;62291;47.554;8.504;2022-08-02T14:57:05;4.22;;;1.58;;
73938;SDS011;62291;47.554;8.504;2022-08-02T14:59:30;2.90;;;1.50;;
73938;SDS011;62291;47.554;8.504;2022-08-02T15:01:56;3.47;;;1.30;;
73938;SDS011;62291;47.554;8.504;2022-08-02T15:04:23;2.08;;;1.20;;
73938;SDS011;62291;47.554;8.504;2022-08-02T15:06:49;2.10;;;1.35;;
73938;SDS011;62291;47.554;8.504;2022-08-02T15:09:15;2.65;;;1.25;;
73938;SDS011;62291;47.554;8.504;2022-08-02T15:11:40;3.53;;;1.50;;
73938;SDS011;62291;47.554;8.504;2022-08-02T15:14:06;1.95;;;1.27;;
73938;SDS011;62291;47.554;8.504;2022-08-02T15:16:32;2.95;;;1.25;;
73938;SDS011;62291;47.554;8.504;2022-08-02T15:19:03;1.98;;;1.42;;
73938;SDS011;62291;47.554;8.504;2022-08-02T15:21:29;3.33;;;1.17;;
73938;SDS011;62291;47.554;8.504;2022-08-02T15:23:55;5.10;;;1.30;;
73938;SDS011;62291;47.554;8.504;2022-08-02T15:26:21;1.90;;;1.30;;
73938;SDS011;62291;47.554;8.504;2022-08-02T15:28:47;1.38;;;1.27;;
73938;SDS011;62291;47.554;8.504;2022-08-02T15:31:13;3.75;;;1.48;;
73938;SDS011;62291;47.554;8.504;2022-08-02T15:33:39;1.67;;;1.52;;
73938;SDS011;62291;47.554;8.504;2022-08-02T15:36:05;1.70;;;1.40;;
73938;SDS011;62291;47.554;8.504;2022-08-02T15:38:31;3.88;;;1.60;;
73938;SDS011;62291;47.554;8.504;2022-08-02T15:40:58;1.55;;;1.20;;